Time;durP1;ratioP1;P1;durP2;ratioP2;P2;SDS_P1;SDS_P2;PMS_P1;PMS_P2;Temp;Humidity;BMP_temperature;BMP_pressure;BME280_temperature;BME280_humidity;BME280_pressure;Samples;Min_cycle;Max_cycle;Signal;HPM_P1;HPM_P2
2023/06/07 00:00:34;;;;;;;;;;;;;;;19.40;78.53;99593.44;4490365;31;33947;-79
2023/06/07 00:03:09;;;;;;;;;;;;;;;19.34;79.00;99583.19;4493168;31;34018;-81
2023/06/07 00:05:43;;;;;;;;;;;;;;;19.00;80.24;99577.94;4488639;31;33988;-79
2023/06/07 00:08:12;;;;;;;;;;;;;;;19.01;79.97;99585.75;4486992;31;33949;-80
2023/06/07 00:10:40;;;;;;;;;;;;;;;19.24;79.15;99581.97;4491812;31;33795;-80
2023/06/07 00:13:10;;;;;;;;;;;;;;;19.30;78.45;99580.81;4492840;31;34893;-79
2023/06/07 00:15:38;;;;;;;;;;;;;;;19.45;77.92;99580.03;4480250;31;34007;-80
2023/06/07 00:18:08;;;;;;;;;;;;;;;19.56;77.21;99577.69;4483355;31;32652;-80
2023/06/07 00:20:36;;;;;;;;;;;;;;;19.64;76.58;99579.06;4487143;31;34531;-80
2023/06/07 00:23:08;;;;;;;;;;;;;;;19.66;76.33;99574.56;4481906;31;33495;-80
2023/06/07 00:25:37;;;;;;;;;;;;;;;19.73;75.63;99582.09;4482805;31;33854;-80
2023/06/07 00:28:05;;;;;;;;;;;;;;;19.73;75.46;99583.88;4490752;31;34104;-79
2023/06/07 00:30:34;;;;;;;;;;;;;;;19.66;75.82;99585.09;4479504;31;34951;-81
2023/06/07 00:33:03;;;;;;;;;;;;;;;19.72;75.26;99584.81;4494176;31;33667;-81
2023/06/07 00:35:32;;;;;;;;;;;;;;;19.55;76.31;99583.88;4477028;31;33696;-80
2023/06/07 00:38:01;;;;;;;;;;;;;;;19.76;74.97;99583.72;4486233;31;34195;-80
2023/06/07 00:40:31;;;;;;;;;;;;;;;19.57;76.06;99583.78;4484456;31;35059;-79
2023/06/07 00:43:00;;;;;;;;;;;;;;;19.52;76.19;99581.44;4487914;31;33237;-81
2023/06/07 00:45:29;;;;;;;;;;;;;;;19.60;75.70;99579.22;4483625;31;34102;-80
2023/06/07 00:47:58;;;;;;;;;;;;;;;19.55;75.33;99586.53;4483158;31;33629;-80
2023/06/07 00:50:27;;;;;;;;;;;;;;;19.56;75.82;99587.38;4481671;31;33493;-79
2023/06/07 00:52:56;;;;;;;;;;;;;;;19.77;74.37;99583.66;4490747;31;34362;-79
2023/06/07 00:55:25;;;;;;;;;;;;;;;19.73;74.79;99586.53;4489916;31;34790;-81
2023/06/07 00:57:55;;;;;;;;;;;;;;;19.79;74.50;99586.22;4481952;31;32767;-79
2023/06/07 01:00:23;;;;;;;;;;;;;;;19.75;74.61;99574.97;4485713;31;33942;-81
2023/06/07 01:02:55;;;;;;;;;;;;;;;19.81;74.56;99584.31;4476880;31;35037;-80
2023/06/07 01:05:24;;;;;;;;;;;;;;;19.80;74.66;99582.63;4486054;31;34351;-81
2023/06/07 01:07:53;;;;;;;;;;;;;;;19.87;74.34;99581.37;4492517;31;33084;-80
2023/06/07 01:10:22;;;;;;;;;;;;;;;19.80;74.48;99577.38;4485717;31;34266;-79
2023/06/07 01:12:53;;;;;;;;;;;;;;;19.74;74.92;99577.69;4477582;31;34381;-81
2023/06/07 01:15:24;;;;;;;;;;;;;;;19.78;74.79;99573.97;4477354;31;34191;-81
2023/06/07 01:17:53;;;;;;;;;;;;;;;19.79;74.66;99570.41;4490505;31;32190;-80
2023/06/07 01:20:23;;;;;;;;;;;;;;;19.73;75.43;99568.09;4487354;31;34917;-81
2023/06/07 01:22:52;;;;;;;;;;;;;;;19.28;77.23;99565.13;4476804;31;33997;-81
2023/06/07 01:25:22;;;;;;;;;;;;;;;19.18;77.79;99558.59;4476899;31;33823;-84
2023/06/07 01:27:52;;;;;;;;;;;;;;;18.87;79.94;99554.91;4484164;31;33109;-79
2023/06/07 01:30:21;;;;;;;;;;;;;;;18.48;82.18;99555.00;4487515;31;35057;-81
2023/06/07 01:32:50;;;;;;;;;;;;;;;18.48;82.04;99557.63;4480364;31;34064;-79
2023/06/07 01:35:18;;;;;;;;;;;;;;;18.63;81.22;99558.69;4484822;31;33823;-81
2023/06/07 01:37:47;;;;;;;;;;;;;;;19.02;79.44;99558.53;4476793;31;33141;-79
2023/06/07 01:40:16;;;;;;;;;;;;;;;19.17;78.74;99551.66;4487143;31;33858;-80
2023/06/07 01:42:46;;;;;;;;;;;;;;;19.37;77.60;99563.78;4492379;31;34764;-81
2023/06/07 01:45:16;;;;;;;;;;;;;;;19.55;76.35;99554.09;4491272;31;34217;-80
2023/06/07 01:47:44;;;;;;;;;;;;;;;19.59;76.11;99553.00;4476500;32;33042;-80
2023/06/07 01:50:20;;;;;;;;;;;;;;;19.57;75.62;99545.19;4491267;31;34392;-83
2023/06/07 01:52:49;;;;;;;;;;;;;;;19.50;76.39;99549.06;4490770;31;34328;-81
2023/06/07 01:55:18;;;;;;;;;;;;;;;19.56;76.17;99548.75;4491663;31;33731;-80
2023/06/07 01:57:51;;;;;;;;;;;;;;;19.59;76.21;99550.34;4492250;31;32984;-81
2023/06/07 02:00:22;;;;;;;;;;;;;;;19.59;75.95;99547.72;4485359;31;34322;-79
2023/06/07 02:02:55;;;;;;;;;;;;;;;19.66;75.82;99545.63;4486449;31;33915;-79
2023/06/07 02:05:25;;;;;;;;;;;;;;;19.32;77.57;99547.38;4483646;31;34080;-80
2023/06/07 02:07:55;;;;;;;;;;;;;;;18.95;80.82;99547.47;4487638;31;33450;-80
2023/06/07 02:10:25;;;;;;;;;;;;;;;18.91;80.56;99548.53;4491726;31;34161;-79
2023/06/07 02:12:56;;;;;;;;;;;;;;;19.00;80.07;99549.88;4492559;31;34194;-80
2023/06/07 02:15:25;;;;;;;;;;;;;;;18.97;80.18;99548.25;4499123;31;34849;-80
2023/06/07 02:17:57;;;;;;;;;;;;;;;18.79;81.25;99551.78;4493825;31;33754;-80
2023/06/07 02:20:29;;;;;;;;;;;;;;;18.75;81.57;99547.59;4486614;31;34410;-80
2023/06/07 02:22:58;;;;;;;;;;;;;;;18.76;82.09;99552.78;4494604;31;34326;-80
2023/06/07 02:25:27;;;;;;;;;;;;;;;19.10;80.50;99545.00;4493477;31;34070;-79
2023/06/07 02:27:59;;;;;;;;;;;;;;;19.53;77.55;99548.91;4483579;31;32966;-79
2023/06/07 02:30:29;;;;;;;;;;;;;;;19.60;77.52;99542.41;4484108;31;33537;-81
2023/06/07 02:32:57;;;;;;;;;;;;;;;19.49;78.09;99541.25;4478534;31;33069;-80
2023/06/07 02:35:29;;;;;;;;;;;;;;;19.57;77.66;99541.69;4481492;31;33800;-80
2023/06/07 02:37:57;;;;;;;;;;;;;;;19.72;76.49;99543.56;4492270;31;32977;-81
2023/06/07 02:40:26;;;;;;;;;;;;;;;19.59;77.06;99545.94;4487852;31;33781;-80
2023/06/07 02:42:55;;;;;;;;;;;;;;;19.60;76.44;99539.75;4490064;31;34121;-81
2023/06/07 02:45:25;;;;;;;;;;;;;;;19.85;75.09;99542.91;4490128;31;33046;-80
2023/06/07 02:47:54;;;;;;;;;;;;;;;19.78;75.44;99542.38;4486840;31;32426;-80
2023/06/07 02:50:23;;;;;;;;;;;;;;;19.82;75.42;99541.28;4493962;31;33852;-79
2023/06/07 02:52:52;;;;;;;;;;;;;;;19.76;75.50;99537.19;4484945;31;34121;-79
2023/06/07 02:55:22;;;;;;;;;;;;;;;19.62;76.07;99539.69;4488271;31;34951;-78
2023/06/07 02:57:50;;;;;;;;;;;;;;;19.79;75.30;99539.66;4489323;31;32771;-81
2023/06/07 03:00:19;;;;;;;;;;;;;;;19.73;75.62;99542.63;4491153;31;33961;-79
2023/06/07 03:02:50;;;;;;;;;;;;;;;19.72;75.39;99548.81;4478245;32;35121;-79
2023/06/07 03:05:19;;;;;;;;;;;;;;;19.86;74.38;99539.31;4487583;31;33919;-79
2023/06/07 03:07:50;;;;;;;;;;;;;;;19.91;73.90;99547.81;4485872;31;33633;-80
2023/06/07 03:10:19;;;;;;;;;;;;;;;19.74;74.76;99546.97;4494186;31;34059;-81
2023/06/07 03:12:48;;;;;;;;;;;;;;;19.58;75.31;99546.03;4477593;31;34299;-79
2023/06/07 03:15:17;;;;;;;;;;;;;;;19.59;75.23;99547.72;4487835;31;34464;-79
2023/06/07 03:17:46;;;;;;;;;;;;;;;19.73;74.61;99557.56;4487302;31;34075;-80
2023/06/07 03:20:18;;;;;;;;;;;;;;;19.79;74.08;99546.72;4489679;31;34879;-79
2023/06/07 03:22:46;;;;;;;;;;;;;;;19.74;74.16;99543.47;4480114;31;33791;-79
2023/06/07 03:25:16;;;;;;;;;;;;;;;19.71;74.42;99549.75;4477129;31;33658;-80
2023/06/07 03:27:46;;;;;;;;;;;;;;;19.70;74.21;99548.06;4481644;31;34291;-79
2023/06/07 03:30:15;;;;;;;;;;;;;;;19.50;75.32;99546.44;4484507;31;34108;-81
2023/06/07 03:32:45;;;;;;;;;;;;;;;19.76;74.37;99546.88;4493338;31;34713;-79
2023/06/07 03:35:15;;;;;;;;;;;;;;;19.52;75.53;99549.84;4492769;31;34252;-79
2023/06/07 03:37:45;;;;;;;;;;;;;;;19.58;75.54;99552.16;4494333;31;33672;-81
2023/06/07 03:40:15;;;;;;;;;;;;;;;19.56;75.67;99550.53;4478393;31;34952;-80
2023/06/07 03:42:43;;;;;;;;;;;;;;;19.59;75.87;99548.56;4483432;32;33544;-79
2023/06/07 03:45:12;;;;;;;;;;;;;;;19.52;75.93;99559.50;4484349;31;34154;-80
2023/06/07 03:47:41;;;;;;;;;;;;;;;19.56;75.94;99555.78;4493406;31;33012;-81
2023/06/07 03:50:10;;;;;;;;;;;;;;;19.58;76.39;99561.81;4486862;31;34159;-80
2023/06/07 03:52:39;;;;;;;;;;;;;;;19.38;77.12;99560.25;4477528;32;35027;-79
2023/06/07 03:55:10;;;;;;;;;;;;;;;19.27;77.65;99562.56;4486641;31;34630;-79
2023/06/07 03:57:41;;;;;;;;;;;;;;;19.58;76.68;99564.47;4493375;31;34290;-79
2023/06/07 04:00:14;;;;;;;;;;;;;;;19.57;76.34;99566.25;4487311;31;34919;-79
2023/06/07 04:02:43;;;;;;;;;;;;;;;19.12;78.76;99564.19;4487240;31;34120;-81
2023/06/07 04:05:12;;;;;;;;;;;;;;;18.93;80.39;99559.00;4497029;31;33915;-83
2023/06/07 04:07:42;;;;;;;;;;;;;;;19.32;78.73;99558.75;4476540;31;33013;-82
2023/06/07 04:10:12;;;;;;;;;;;;;;;19.42;78.47;99566.19;4480051;31;34637;-80
2023/06/07 04:12:42;;;;;;;;;;;;;;;19.68;77.20;99562.22;4488492;31;33545;-79
2023/06/07 04:15:11;;;;;;;;;;;;;;;19.30;78.68;99567.66;4483003;31;33635;-80
2023/06/07 04:17:40;;;;;;;;;;;;;;;19.56;77.63;99571.56;4492636;31;33076;-81
2023/06/07 04:20:10;;;;;;;;;;;;;;;19.52;77.87;99567.41;4479900;31;33847;-79
2023/06/07 04:22:39;;;;;;;;;;;;;;;19.71;77.28;99567.31;4485303;31;34290;-79
2023/06/07 04:25:08;;;;;;;;;;;;;;;19.60;78.26;99563.44;4482037;31;33630;-80
2023/06/07 04:27:38;;;;;;;;;;;;;;;19.56;78.56;99566.31;4496786;31;34143;-79
2023/06/07 04:30:10;;;;;;;;;;;;;;;19.74;77.93;99570.66;4483459;31;34221;-80
2023/06/07 04:32:40;;;;;;;;;;;;;;;19.81;77.92;99573.78;4487325;31;33703;-79
2023/06/07 04:35:09;;;;;;;;;;;;;;;19.92;77.33;99576.72;4479843;31;34208;-80
2023/06/07 04:37:39;;;;;;;;;;;;;;;19.93;76.96;99572.28;4483432;31;32449;-80
2023/06/07 04:40:09;;;;;;;;;;;;;;;19.97;76.77;99563.31;4482475;31;33774;-78
2023/06/07 04:42:40;;;;;;;;;;;;;;;19.93;77.35;99564.38;4479408;31;34846;-81
2023/06/07 04:45:11;;;;;;;;;;;;;;;19.68;78.15;99562.22;4475756;31;34171;-81
2023/06/07 04:47:45;;;;;;;;;;;;;;;19.55;78.13;99569.88;4484259;31;33229;-82
2023/06/07 04:50:20;;;;;;;;;;;;;;;19.31;79.60;99564.13;4490904;31;32293;-81
2023/06/07 04:52:50;;;;;;;;;;;;;;;19.39;79.84;99570.66;4483463;31;34078;-79
2023/06/07 04:55:22;;;;;;;;;;;;;;;19.50;79.43;99572.75;4484402;31;33708;-79
2023/06/07 04:57:54;;;;;;;;;;;;;;;19.66;78.91;99574.56;4479670;31;34118;-81
2023/06/07 05:00:24;;;;;;;;;;;;;;;19.64;78.24;99573.81;4480261;31;33972;-82
2023/06/07 05:02:53;;;;;;;;;;;;;;;19.32;78.15;99577.16;4496896;31;34126;-79
2023/06/07 05:05:22;;;;;;;;;;;;;;;19.33;78.72;99578.88;4490231;31;33780;-79
2023/06/07 05:07:52;;;;;;;;;;;;;;;19.53;78.06;99583.13;4485670;31;33605;-80
2023/06/07 05:10:21;;;;;;;;;;;;;;;19.39;78.17;99580.34;4476620;31;33812;-79
2023/06/07 05:12:50;;;;;;;;;;;;;;;19.67;76.45;99577.13;4486805;31;35337;-79
2023/06/07 05:15:21;;;;;;;;;;;;;;;19.59;75.89;99579.31;4484827;31;33842;-80
2023/06/07 05:17:50;;;;;;;;;;;;;;;19.27;76.28;99581.81;4485536;31;32796;-80
2023/06/07 05:20:19;;;;;;;;;;;;;;;19.40;76.28;99575.00;4477628;31;34679;-80
2023/06/07 05:22:48;;;;;;;;;;;;;;;19.39;75.44;99578.56;4485911;31;35059;-80
2023/06/07 05:25:17;;;;;;;;;;;;;;;19.49;75.16;99584.19;4494089;31;33688;-79
2023/06/07 05:27:49;;;;;;;;;;;;;;;19.81;74.33;99569.41;4476017;31;33468;-79
2023/06/07 05:30:40;;;;;;;;;;;;;;;19.83;73.39;99574.56;4480422;31;34823;-80
2023/06/07 05:33:10;;;;;;;;;;;;;;;19.54;75.11;99574.28;4486757;31;34683;-80
2023/06/07 05:35:44;;;;;;;;;;;;;;;19.28;76.92;99574.75;4484367;31;34060;-79
2023/06/07 05:38:14;;;;;;;;;;;;;;;19.85;74.59;99575.34;4491455;31;34060;-80
2023/06/07 05:40:43;;;;;;;;;;;;;;;19.55;75.83;99577.78;4491054;31;33934;-80
2023/06/07 05:43:11;;;;;;;;;;;;;;;19.40;75.63;99580.28;4478844;31;33919;-79
2023/06/07 05:45:41;;;;;;;;;;;;;;;19.39;75.37;99585.59;4480423;31;33682;-79
2023/06/07 05:48:11;;;;;;;;;;;;;;;19.61;73.76;99586.19;4497734;31;32811;-79
2023/06/07 05:50:39;;;;;;;;;;;;;;;19.93;73.35;99578.41;4494875;31;34229;-80
2023/06/07 05:53:08;;;;;;;;;;;;;;;19.92;73.56;99583.75;4487273;31;34794;-79
2023/06/07 05:55:37;;;;;;;;;;;;;;;19.75;74.39;99582.87;4492706;31;32455;-80
2023/06/07 05:58:05;;;;;;;;;;;;;;;19.88;74.06;99583.06;4493696;31;33659;-79
2023/06/07 06:00:34;;;;;;;;;;;;;;;19.54;74.90;99587.44;4498249;31;33955;-79
2023/06/07 06:03:04;;;;;;;;;;;;;;;20.24;72.92;99593.38;4494056;31;34047;-79
2023/06/07 06:05:33;;;;;;;;;;;;;;;19.96;74.53;99585.31;4494003;31;34420;-78
2023/06/07 06:08:02;;;;;;;;;;;;;;;20.22;72.74;99591.78;4481727;31;33248;-79
2023/06/07 06:10:31;;;;;;;;;;;;;;;20.34;73.13;99588.47;4491240;31;33823;-79
2023/06/07 06:13:03;;;;;;;;;;;;;;;20.17;71.78;99592.03;4482415;31;34553;-79
2023/06/07 06:15:32;;;;;;;;;;;;;;;19.94;73.62;99600.34;4483674;31;34026;-79
2023/06/07 06:18:00;;;;;;;;;;;;;;;20.22;71.37;99599.69;4487261;31;33480;-79
2023/06/07 06:20:33;;;;;;;;;;;;;;;20.63;69.26;99591.31;4485031;31;34106;-79
2023/06/07 06:23:03;;;;;;;;;;;;;;;20.63;70.14;99599.22;4494301;31;34138;-79
2023/06/07 06:25:32;;;;;;;;;;;;;;;20.63;69.99;99602.72;4487820;31;34254;-79
2023/06/07 06:28:01;;;;;;;;;;;;;;;20.38;69.78;99597.06;4487915;31;32922;-79
2023/06/07 06:30:29;;;;;;;;;;;;;;;20.02;69.61;99596.34;4482591;31;33676;-80
2023/06/07 06:33:04;;;;;;;;;;;;;;;20.59;68.92;99597.72;4491351;31;34994;-78
2023/06/07 06:35:35;;;;;;;;;;;;;;;20.87;68.12;99603.09;4488545;31;34288;-80
2023/06/07 06:38:09;;;;;;;;;;;;;;;21.12;66.87;99600.81;4485360;31;33129;-79
2023/06/07 06:40:38;;;;;;;;;;;;;;;20.95;67.58;99599.16;4486432;31;33928;-79
2023/06/07 06:43:07;;;;;;;;;;;;;;;21.19;67.82;99608.31;4486277;31;35100;-79
2023/06/07 06:45:35;;;;;;;;;;;;;;;21.21;66.67;99603.78;4489610;31;33730;-78
2023/06/07 06:48:04;;;;;;;;;;;;;;;21.42;65.92;99608.78;4485380;31;33547;-79
2023/06/07 06:50:35;;;;;;;;;;;;;;;21.33;65.70;99604.00;4484768;31;34911;-78
2023/06/07 06:53:04;;;;;;;;;;;;;;;21.26;66.18;99609.66;4489500;31;34126;-79
2023/06/07 06:55:34;;;;;;;;;;;;;;;21.65;64.89;99613.53;4490086;31;34706;-80
2023/06/07 06:58:03;;;;;;;;;;;;;;;20.87;66.64;99610.16;4489108;31;33381;-79
2023/06/07 07:00:35;;;;;;;;;;;;;;;21.37;65.55;99610.81;4486526;31;33726;-80
2023/06/07 07:03:05;;;;;;;;;;;;;;;20.85;67.54;99604.13;4488851;31;34270;-78
2023/06/07 07:05:36;;;;;;;;;;;;;;;21.40;65.59;99608.00;4485990;31;34075;-79
2023/06/07 07:08:06;;;;;;;;;;;;;;;20.98;67.87;99612.19;4493581;31;33313;-79
2023/06/07 07:10:35;;;;;;;;;;;;;;;21.15;67.79;99608.59;4490230;31;33645;-79
2023/06/07 07:13:03;;;;;;;;;;;;;;;21.15;67.60;99617.34;4487679;31;34064;-79
2023/06/07 07:15:32;;;;;;;;;;;;;;;21.31;66.26;99612.87;4483367;31;34416;-79
2023/06/07 07:18:02;;;;;;;;;;;;;;;21.77;65.23;99619.00;4485512;31;32940;-80
2023/06/07 07:20:32;;;;;;;;;;;;;;;21.79;65.64;99620.59;4492245;31;33773;-79
2023/06/07 07:23:03;;;;;;;;;;;;;;;21.85;64.22;99614.97;4489717;31;33727;-80
2023/06/07 07:25:31;;;;;;;;;;;;;;;22.01;63.15;99622.81;4484126;31;34018;-79
2023/06/07 07:28:00;;;;;;;;;;;;;;;22.33;63.20;99623.47;4481899;31;33020;-80
2023/06/07 07:30:29;;;;;;;;;;;;;;;22.16;63.96;99621.00;4487829;31;34218;-79
2023/06/07 07:32:57;;;;;;;;;;;;;;;22.42;62.75;99622.03;4486423;31;33861;-80
2023/06/07 07:35:26;;;;;;;;;;;;;;;22.55;61.85;99617.66;4492975;31;33735;-80
2023/06/07 07:37:55;;;;;;;;;;;;;;;22.01;63.29;99627.22;4491419;31;33973;-79
2023/06/07 07:40:25;;;;;;;;;;;;;;;22.20;63.18;99621.66;4496324;31;34116;-79
2023/06/07 07:42:53;;;;;;;;;;;;;;;22.12;61.49;99622.13;4489590;31;33264;-79
2023/06/07 07:45:23;;;;;;;;;;;;;;;21.84;62.69;99622.97;4489252;31;34564;-80
2023/06/07 07:47:52;;;;;;;;;;;;;;;22.16;62.92;99632.41;4491693;31;34133;-79
2023/06/07 07:50:21;;;;;;;;;;;;;;;21.51;64.07;99630.19;4493277;31;33933;-80
2023/06/07 07:52:53;;;;;;;;;;;;;;;21.66;64.81;99630.22;4493497;31;34837;-79
2023/06/07 07:55:22;;;;;;;;;;;;;;;21.40;64.50;99631.75;4492357;31;33293;-79
2023/06/07 07:57:52;;;;;;;;;;;;;;;21.49;64.04;99629.44;4487362;31;32888;-79
2023/06/07 08:00:23;;;;;;;;;;;;;;;22.07;62.38;99632.97;4479359;31;33083;-80
2023/06/07 08:02:52;;;;;;;;;;;;;;;22.00;62.88;99636.09;4481918;31;34006;-80
2023/06/07 08:05:21;;;;;;;;;;;;;;;21.64;65.19;99635.59;4476570;31;33767;-80
2023/06/07 08:07:50;;;;;;;;;;;;;;;21.16;66.74;99637.50;4478370;31;33577;-78
2023/06/07 08:10:21;;;;;;;;;;;;;;;21.81;64.32;99636.38;4477115;31;34808;-80
2023/06/07 08:12:49;;;;;;;;;;;;;;;21.23;65.23;99633.56;4490517;31;33927;-79
2023/06/07 08:15:20;;;;;;;;;;;;;;;21.71;64.58;99636.91;4482576;31;34045;-78
2023/06/07 08:17:48;;;;;;;;;;;;;;;21.95;64.64;99647.78;4476757;31;35234;-80
2023/06/07 08:20:19;;;;;;;;;;;;;;;22.15;63.33;99635.97;4477160;31;34622;-80
2023/06/07 08:22:50;;;;;;;;;;;;;;;22.36;62.37;99638.28;4485626;31;34024;-78
2023/06/07 08:25:19;;;;;;;;;;;;;;;22.25;63.18;99646.03;4484768;31;34750;-79
2023/06/07 08:27:47;;;;;;;;;;;;;;;22.36;62.19;99633.00;4491389;31;33218;-79
2023/06/07 08:30:16;;;;;;;;;;;;;;;22.49;62.60;99633.91;4478232;31;34953;-79
2023/06/07 08:32:47;;;;;;;;;;;;;;;22.76;60.99;99631.31;4477421;31;34434;-79
2023/06/07 08:35:15;;;;;;;;;;;;;;;22.79;61.24;99632.91;4491529;31;33141;-79
2023/06/07 08:37:44;;;;;;;;;;;;;;;22.75;61.29;99632.25;4482260;31;32771;-80
2023/06/07 08:40:14;;;;;;;;;;;;;;;22.94;61.61;99634.53;4485671;31;34088;-80
2023/06/07 08:42:46;;;;;;;;;;;;;;;22.72;60.82;99628.97;4490582;31;34011;-79
2023/06/07 08:45:15;;;;;;;;;;;;;;;22.76;61.42;99627.78;4488340;31;34163;-80
2023/06/07 08:47:44;;;;;;;;;;;;;;;22.42;61.80;99632.59;4490706;31;34205;-80
2023/06/07 08:50:14;;;;;;;;;;;;;;;23.13;60.57;99630.72;4476446;31;33878;-81
2023/06/07 08:52:43;;;;;;;;;;;;;;;23.17;60.01;99618.97;4485114;31;33225;-79
2023/06/07 08:55:12;;;;;;;;;;;;;;;22.91;60.72;99618.88;4490974;31;34557;-80
2023/06/07 08:57:41;;;;;;;;;;;;;;;22.70;60.80;99613.19;4495048;31;33358;-80
2023/06/07 09:00:11;;;;;;;;;;;;;;;23.12;59.54;99616.66;4478141;31;34163;-81
2023/06/07 09:02:39;;;;;;;;;;;;;;;23.55;59.64;99620.84;4479690;31;34699;-80
2023/06/07 09:05:09;;;;;;;;;;;;;;;23.28;59.52;99621.75;4485066;31;33433;-80
2023/06/07 09:07:39;;;;;;;;;;;;;;;23.89;57.16;99621.22;4487816;31;33288;-80
2023/06/07 09:10:08;;;;;;;;;;;;;;;24.37;56.64;99621.34;4493819;31;33138;-80
2023/06/07 09:12:37;;;;;;;;;;;;;;;23.87;57.46;99623.12;4485226;31;33562;-80
2023/06/07 09:15:07;;;;;;;;;;;;;;;23.87;58.42;99625.75;4476705;31;33684;-81
2023/06/07 09:17:51;;;;;;;;;;;;;;;23.84;57.73;99627.66;4486917;31;32501;-81
2023/06/07 09:20:21;;;;;;;;;;;;;;;24.34;57.60;99626.87;4491627;31;33797;-81
2023/06/07 09:23:01;;;;;;;;;;;;;;;23.30;60.44;99627.81;4490518;31;33784;-81
2023/06/07 09:25:31;;;;;;;;;;;;;;;23.67;57.59;99621.81;4482279;31;34247;-80
2023/06/07 09:28:00;;;;;;;;;;;;;;;23.52;58.64;99616.59;4481485;31;33752;-81
2023/06/07 09:30:28;;;;;;;;;;;;;;;24.05;58.11;99624.50;4479765;31;32129;-80
2023/06/07 09:32:59;;;;;;;;;;;;;;;24.31;57.80;99624.44;4486832;31;33411;-81
2023/06/07 09:35:28;;;;;;;;;;;;;;;24.44;56.62;99626.09;4492537;31;34745;-81
2023/06/07 09:37:59;;;;;;;;;;;;;;;24.25;57.38;99631.88;4488686;31;33776;-80
2023/06/07 09:40:29;;;;;;;;;;;;;;;23.83;59.38;99620.69;4480077;31;33986;-80
2023/06/07 09:42:59;;;;;;;;;;;;;;;23.85;60.43;99626.72;4496521;31;34219;-80
2023/06/07 09:45:28;;;;;;;;;;;;;;;24.44;58.18;99631.41;4498091;31;34423;-80
2023/06/07 09:48:03;;;;;;;;;;;;;;;24.40;56.22;99629.91;4491578;31;34292;-80
2023/06/07 09:50:32;;;;;;;;;;;;;;;24.76;55.05;99627.41;4488329;31;33990;-81
2023/06/07 09:53:02;;;;;;;;;;;;;;;24.45;55.29;99629.59;4492316;31;34371;-80
2023/06/07 09:55:32;;;;;;;;;;;;;;;24.21;55.63;99630.41;4497219;31;33960;-81
2023/06/07 09:58:01;;;;;;;;;;;;;;;23.34;58.45;99631.06;4491940;31;33177;-80
2023/06/07 10:00:30;;;;;;;;;;;;;;;23.73;58.16;99624.06;4482968;31;33679;-81
2023/06/07 10:03:06;;;;;;;;;;;;;;;23.82;58.35;99624.31;4483915;31;34707;-80
2023/06/07 10:05:35;;;;;;;;;;;;;;;23.52;58.26;99619.25;4486087;31;34095;-81
2023/06/07 10:08:06;;;;;;;;;;;;;;;23.60;58.53;99616.09;4483062;31;33124;-81
2023/06/07 10:10:36;;;;;;;;;;;;;;;24.09;58.17;99617.16;4476567;31;34187;-80
2023/06/07 10:13:05;;;;;;;;;;;;;;;24.05;57.54;99611.25;4475717;31;34146;-81
2023/06/07 10:15:35;;;;;;;;;;;;;;;24.44;57.25;99612.00;4486683;31;33998;-81
2023/06/07 10:18:07;;;;;;;;;;;;;;;24.35;57.26;99615.31;4486520;31;33674;-80
2023/06/07 10:20:40;;;;;;;;;;;;;;;24.32;57.27;99613.72;4488400;31;34256;-81
2023/06/07 10:23:11;;;;;;;;;;;;;;;23.91;59.15;99619.31;4484823;31;33056;-81
2023/06/07 10:25:45;;;;;;;;;;;;;;;23.44;59.69;99616.28;4480565;31;34533;-81
2023/06/07 10:28:14;;;;;;;;;;;;;;;23.90;58.97;99612.31;4488283;31;33027;-80
2023/06/07 10:30:47;;;;;;;;;;;;;;;23.67;60.03;99605.94;4494327;31;34285;-81
2023/06/07 10:33:16;;;;;;;;;;;;;;;23.69;57.92;99615.47;4477412;31;32691;-80
2023/06/07 10:35:45;;;;;;;;;;;;;;;23.83;59.15;99612.72;4476300;31;34391;-79
2023/06/07 10:38:14;;;;;;;;;;;;;;;23.59;59.29;99609.94;4476554;31;33373;-79
2023/06/07 10:40:48;;;;;;;;;;;;;;;24.22;57.04;99612.69;4481396;31;33660;-80
2023/06/07 10:43:16;;;;;;;;;;;;;;;23.83;59.23;99607.44;4487939;31;32639;-79
2023/06/07 10:45:45;;;;;;;;;;;;;;;24.03;58.18;99608.69;4488401;31;33821;-80
2023/06/07 10:48:33;;;;;;;;;;;;;;;24.09;56.70;99602.13;4477896;32;32651;-80
2023/06/07 10:51:07;;;;;;;;;;;;;;;24.56;56.41;99605.00;4481387;31;34513;-80
2023/06/07 10:53:49;;;;;;;;;;;;;;;24.32;57.05;99610.25;4489626;31;33857;-79
2023/06/07 10:56:29;;;;;;;;;;;;;;;24.25;56.83;99605.34;4491663;31;34189;-79
2023/06/07 10:59:20;;;;;;;;;;;;;;;24.63;55.31;99601.78;4486397;31;31452;-79
2023/06/07 11:01:52;;;;;;;;;;;;;;;24.47;55.69;99606.50;4483116;31;33401;-79
2023/06/07 11:04:54;;;;;;;;;;;;;;;23.81;57.27;99600.56;4476439;31;34073;-79
2023/06/07 11:07:27;;;;;;;;;;;;;;;24.02;56.55;99600.88;4447252;32;33984;-80
2023/06/07 11:10:15;;;;;;;;;;;;;;;24.23;55.88;99601.12;4437004;32;35594;-79
2023/06/07 11:12:58;;;;;;;;;;;;;;;24.70;55.30;99602.19;4450298;32;34987;-80
2023/06/07 11:15:30;;;;;;;;;;;;;;;24.60;56.43;99603.84;4442965;32;33790;-80
2023/06/07 11:18:00;;;;;;;;;;;;;;;24.78;56.20;99607.78;4440156;32;34505;-79
2023/06/07 11:20:49;;;;;;;;;;;;;;;25.00;53.52;99603.53;4441455;32;33646;-79
2023/06/07 11:23:22;;;;;;;;;;;;;;;25.40;53.70;99612.03;4439053;32;34628;-80
2023/06/07 11:25:52;;;;;;;;;;;;;;;24.88;54.45;99607.94;4449388;32;34175;-80
2023/06/07 11:28:23;;;;;;;;;;;;;;;24.75;55.06;99599.22;4460250;32;34669;-79
2023/06/07 11:30:53;;;;;;;;;;;;;;;25.28;53.64;99600.53;4439817;32;33106;-79
2023/06/07 11:33:25;;;;;;;;;;;;;;;24.53;55.35;99602.59;4443806;32;34170;-79
2023/06/07 11:35:54;;;;;;;;;;;;;;;24.20;56.59;99604.84;4442512;32;34787;-79
2023/06/07 11:38:24;;;;;;;;;;;;;;;24.47;55.31;99606.50;4449767;32;33039;-79
2023/06/07 11:40:52;;;;;;;;;;;;;;;24.94;53.81;99606.66;4461400;32;33178;-79
2023/06/07 11:43:23;;;;;;;;;;;;;;;25.00;53.23;99601.72;4461553;32;34435;-80
2023/06/07 11:45:55;;;;;;;;;;;;;;;24.94;53.74;99610.16;4458399;32;34256;-79
2023/06/07 11:48:25;;;;;;;;;;;;;;;25.55;53.87;99604.69;4457224;32;34232;-81
2023/06/07 11:50:54;;;;;;;;;;;;;;;25.71;53.30;99599.06;4461194;32;33838;-80
2023/06/07 11:53:24;;;;;;;;;;;;;;;25.77;53.04;99602.06;4458633;32;34445;-80
2023/06/07 11:55:52;;;;;;;;;;;;;;;26.65;49.92;99586.31;4455980;32;34078;-80
2023/06/07 11:58:23;;;;;;;;;;;;;;;26.89;48.73;99584.31;4456402;32;34230;-79
2023/06/07 12:00:53;;;;;;;;;;;;;;;26.09;52.49;99585.44;4458033;32;33123;-81
2023/06/07 12:03:22;;;;;;;;;;;;;;;26.65;49.17;99584.53;4455049;32;33540;-81
2023/06/07 12:05:53;;;;;;;;;;;;;;;26.64;49.57;99577.50;4454619;32;34366;-80
2023/06/07 12:08:22;;;;;;;;;;;;;;;27.07;48.86;99579.28;4457672;32;32245;-79
2023/06/07 12:10:52;;;;;;;;;;;;;;;26.26;50.16;99575.25;4460124;32;32735;-80
2023/06/07 12:13:23;;;;;;;;;;;;;;;26.61;50.37;99569.78;4460959;32;35262;-79
2023/06/07 12:15:53;;;;;;;;;;;;;;;26.70;50.34;99565.50;4450883;32;33808;-80
2023/06/07 12:18:24;;;;;;;;;;;;;;;26.89;48.36;99562.16;4457114;32;34983;-80
2023/06/07 12:21:01;;;;;;;;;;;;;;;26.69;48.65;99559.34;4453689;32;33154;-79
2023/06/07 12:23:32;;;;;;;;;;;;;;;27.06;47.68;99545.63;4452532;32;33903;-79
2023/06/07 12:26:11;;;;;;;;;;;;;;;26.81;48.64;99542.34;4450865;32;34679;-80
2023/06/07 12:28:42;;;;;;;;;;;;;;;26.73;49.39;99538.66;4445835;32;33870;-80
2023/06/07 12:31:14;;;;;;;;;;;;;;;27.56;44.82;99529.00;4450230;32;32747;-79
2023/06/07 12:33:53;;;;;;;;;;;;;;;27.47;45.91;99533.28;4455748;32;34192;-80
2023/06/07 12:36:22;;;;;;;;;;;;;;;26.66;48.47;99519.69;4430469;31;1094784;-80
2023/06/07 12:38:52;;;;;;;;;;;;;;;27.72;46.24;99532.03;4480621;31;34010;-80
2023/06/07 12:41:23;;;;;;;;;;;;;;;27.39;46.90;99531.28;4481859;31;33743;-78
2023/06/07 12:43:54;;;;;;;;;;;;;;;27.15;46.48;99523.53;4478762;31;33489;-80
2023/06/07 12:46:24;;;;;;;;;;;;;;;27.13;47.80;99533.47;4478247;31;34288;-80
2023/06/07 12:48:52;;;;;;;;;;;;;;;27.94;44.95;99519.53;4482783;31;33679;-80
2023/06/07 12:51:21;;;;;;;;;;;;;;;27.82;43.86;99521.41;4483294;31;33223;-80
2023/06/07 12:53:51;;;;;;;;;;;;;;;27.84;45.07;99527.47;4484142;31;34734;-80
2023/06/07 12:56:20;;;;;;;;;;;;;;;27.21;47.41;99527.56;4483938;31;33694;-80
2023/06/07 12:58:49;;;;;;;;;;;;;;;27.07;49.03;99534.00;4489918;31;32727;-79
2023/06/07 13:01:19;;;;;;;;;;;;;;;26.11;50.63;99518.84;4481557;31;33175;-79
2023/06/07 13:03:49;;;;;;;;;;;;;;;26.59;48.99;99523.84;4481387;31;34578;-79